Terminal Aerodrome Forecast
Issued by NWS

Home | Current Version | Previous Version | Text Only | Print | Product List | Glossary On
Versions: 1 2 3 4 5 6 7 8 9 10 11 12 13 14 15 16 17 18 19 20 21 22 23 24 25
000
FTUS45 KREV 040533
TAFTVL
TAF
KTVL 040533Z 0406/0506 VRB04KT P6SM FEW100 SCT150
     FM042000 03007KT P6SM VCTS SCT060CB BKN120
     FM050100 VRB04KT P6SM VCSH BKN070 BKN100=

USA.gov is the U.S. government's official web portal to all federal, state and local government web resources and services.